Time;durP1;ratioP1;P1;durP2;ratioP2;P2;SDS_P1;SDS_P2;PMS_P1;PMS_P2;Temp;Humidity;BMP_temperature;BMP_pressure;BME280_temperature;BME280_humidity;BME280_pressure;Samples;Min_cycle;Max_cycle;Signal;HPM_P1;HPM_P2
2021/08/23 00:00:34;;;;;;;10.40;7.10;;;;;;;17.08;69.46;96811.63;5093196;28;20016;-62
2021/08/23 00:02:59;;;;;;;7.60;6.45;;;;;;;17.08;69.89;96807.22;5093113;28;20035;-62
2021/08/23 00:05:25;;;;;;;9.25;7.00;;;;;;;17.14;69.27;96808.63;5096550;28;21390;-62
2021/08/23 00:07:50;;;;;;;8.55;6.78;;;;;;;17.18;68.69;96803.06;5111455;28;20038;-62
2021/08/23 00:10:16;;;;;;;11.50;6.93;;;;;;;17.16;68.85;96807.59;5113283;28;20022;-60
2021/08/23 00:12:41;;;;;;;10.68;8.10;;;;;;;17.13;69.64;96806.94;5098120;28;20109;-60
2021/08/23 00:15:09;;;;;;;12.98;7.60;;;;;;;17.01;69.73;96806.69;5092896;28;20069;-62
2021/08/23 00:17:34;;;;;;;10.25;8.30;;;;;;;16.89;70.26;96799.50;5093024;28;20097;-60
2021/08/23 00:20:02;;;;;;;11.77;7.78;;;;;;;16.79;71.04;96801.84;5092896;28;20466;-62
2021/08/23 00:22:36;;;;;;;9.75;7.55;;;;;;;16.70;71.50;96794.47;5093752;28;20028;-61
2021/08/23 00:25:03;;;;;;;14.68;7.57;;;;;;;16.80;69.99;96795.63;5092570;28;20037;-60
2021/08/23 00:27:30;;;;;;;8.57;6.53;;;;;;;16.81;69.29;96802.59;5092880;28;20036;-61
2021/08/23 00:29:56;;;;;;;9.63;7.15;;;;;;;16.76;69.95;96802.00;5094636;28;20055;-60
2021/08/23 00:32:24;;;;;;;8.35;7.07;;;;;;;16.77;69.82;96801.09;5113150;28;20015;-61
2021/08/23 00:34:49;;;;;;;10.43;7.93;;;;;;;16.84;69.15;96797.16;5113043;28;20020;-62
2021/08/23 00:37:16;;;;;;;10.02;7.72;;;;;;;16.87;69.02;96796.09;5113106;28;20050;-62
2021/08/23 00:39:42;;;;;;;8.70;7.15;;;;;;;16.92;68.15;96796.69;5113131;28;20102;-60
2021/08/23 00:42:08;;;;;;;8.90;6.72;;;;;;;16.92;68.16;96808.09;5097829;28;20066;-62
2021/08/23 00:44:38;;;;;;;8.88;6.65;;;;;;;16.93;67.85;96806.31;5117070;28;20051;-61
2021/08/23 00:47:05;;;;;;;11.40;8.13;;;;;;;16.97;67.93;96799.91;5117007;28;20030;-63
2021/08/23 00:49:33;;;;;;;11.50;7.03;;;;;;;17.05;67.69;96804.72;5116843;28;20032;-60
2021/08/23 00:51:59;;;;;;;8.48;7.20;;;;;;;17.06;66.98;96801.13;5103776;28;20043;-62
2021/08/23 00:54:25;;;;;;;9.60;6.90;;;;;;;17.00;67.16;96799.72;5096315;28;20036;-60
2021/08/23 00:56:51;;;;;;;9.55;6.68;;;;;;;16.96;66.93;96795.56;5096165;28;20020;-63
2021/08/23 00:59:18;;;;;;;9.52;6.93;;;;;;;16.97;66.83;96801.69;5096285;28;20425;-63
2021/08/23 01:01:51;;;;;;;8.93;6.57;;;;;;;17.00;66.72;96804.13;5106273;28;20111;-63
2021/08/23 01:04:32;;;;;;;8.23;7.20;;;;;;;16.93;66.50;96796.59;5116604;28;20068;-62
2021/08/23 01:07:01;;;;;;;9.82;6.57;;;;;;;16.87;66.02;96798.75;5116504;28;20495;-61
2021/08/23 01:09:30;;;;;;;7.50;6.60;;;;;;;16.79;66.76;96792.13;5111621;28;20024;-62
2021/08/23 01:11:58;;;;;;;10.30;7.28;;;;;;;16.78;67.83;96802.78;5104788;28;20020;-60
2021/08/23 01:14:24;;;;;;;9.20;7.30;;;;;;;16.77;68.96;96804.56;5116389;28;20024;-61
2021/08/23 01:16:51;;;;;;;12.43;6.97;;;;;;;16.77;68.23;96801.94;5116207;28;20019;-61
2021/08/23 01:19:19;;;;;;;9.23;7.43;;;;;;;16.66;68.71;96802.56;5113698;28;20027;-62
2021/08/23 01:21:46;;;;;;;10.63;7.07;;;;;;;16.68;68.77;96800.69;5116100;28;20076;-63
2021/08/23 01:24:13;;;;;;;9.75;6.45;;;;;;;16.62;68.74;96797.56;5116120;28;20493;-61
2021/08/23 01:26:45;;;;;;;11.00;7.50;;;;;;;16.59;67.96;96803.88;5116114;28;20023;-62
2021/08/23 01:29:45;;;;;;;9.15;6.63;;;;;;;16.51;68.57;96793.75;5101027;28;20043;-64
2021/08/23 01:32:22;;;;;;;8.68;6.88;;;;;;;16.54;67.68;96798.88;5082247;28;20123;-62
2021/08/23 01:34:49;;;;;;;12.15;7.32;;;;;;;16.50;67.67;96794.69;5095514;28;20043;-63
2021/08/23 01:37:16;;;;;;;8.55;6.75;;;;;;;16.48;68.23;96798.34;5095422;28;20040;-63
2021/08/23 01:39:42;;;;;;;9.10;7.03;;;;;;;16.50;67.60;96792.03;5114052;28;20027;-61
2021/08/23 01:42:08;;;;;;;15.95;6.78;;;;;;;16.53;68.58;96786.59;5115745;28;20038;-62
2021/08/23 01:44:34;;;;;;;11.70;7.35;;;;;;;16.51;67.72;96796.41;5115688;28;20024;-64
2021/08/23 01:47:00;;;;;;;9.20;6.50;;;;;;;16.46;67.44;96790.53;5115717;28;20027;-63
2021/08/23 01:49:25;;;;;;;8.18;7.10;;;;;;;16.47;67.96;96788.75;5099023;28;20070;-61
2021/08/23 01:51:51;;;;;;;11.23;7.38;;;;;;;16.48;67.62;96783.38;5095255;28;20032;-62
2021/08/23 01:54:18;;;;;;;9.18;6.70;;;;;;;16.39;67.43;96782.13;5094218;28;20089;-62
2021/08/23 01:56:44;;;;;;;9.10;6.82;;;;;;;16.45;67.53;96780.06;5095202;28;20378;-61
2021/08/23 01:59:10;;;;;;;10.52;7.82;;;;;;;16.20;69.71;96782.34;5105929;28;20031;-63
2021/08/23 02:01:35;;;;;;;11.02;7.93;;;;;;;16.16;69.08;96771.09;5110176;28;20024;-62
2021/08/23 02:04:01;;;;;;;8.98;7.35;;;;;;;16.10;68.95;96775.88;5095095;28;20473;-62
2021/08/23 02:06:26;;;;;;;12.10;7.70;;;;;;;15.95;69.44;96773.13;5094878;28;20020;-62
2021/08/23 02:08:53;;;;;;;9.05;7.55;;;;;;;15.94;69.23;96765.28;5098160;28;20032;-63
2021/08/23 02:11:19;;;;;;;9.45;7.50;;;;;;;15.89;70.01;96763.75;5115322;28;20028;-62
2021/08/23 02:13:45;;;;;;;12.35;7.70;;;;;;;15.89;69.83;96765.53;5115304;28;20027;-60
2021/08/23 02:16:11;;;;;;;10.65;7.68;;;;;;;15.85;69.75;96767.53;5115066;28;20027;-62
2021/08/23 02:18:36;;;;;;;9.55;7.47;;;;;;;15.91;69.30;96767.19;5115085;28;20016;-63
2021/08/23 02:21:02;;;;;;;12.18;7.00;;;;;;;15.85;68.95;96764.03;5109616;28;20020;-60
2021/08/23 02:23:28;;;;;;;8.90;7.28;;;;;;;15.84;68.89;96765.81;5094404;28;20490;-59
2021/08/23 02:25:56;;;;;;;10.40;7.18;;;;;;;15.77;69.09;96761.81;5094677;28;20080;-59
2021/08/23 02:28:22;;;;;;;10.35;7.75;;;;;;;15.71;69.79;96756.91;5094462;28;20103;-62
2021/08/23 02:30:48;;;;;;;9.50;6.78;;;;;;;15.75;69.07;96764.53;5095646;28;20422;-63
2021/08/23 02:33:13;;;;;;;10.68;7.90;;;;;;;15.69;69.81;96767.53;5094395;28;20450;-62
2021/08/23 02:35:39;;;;;;;10.85;7.90;;;;;;;15.63;69.62;96758.13;5094440;28;20047;-61
2021/08/23 02:38:07;;;;;;;9.00;7.25;;;;;;;15.68;68.44;96760.53;5094171;28;20123;-60
2021/08/23 02:40:34;;;;;;;9.52;7.47;;;;;;;15.71;68.77;96764.81;5094260;28;20404;-61
2021/08/23 02:42:59;;;;;;;9.23;7.10;;;;;;;15.69;68.46;96761.38;5094265;28;20024;-62
2021/08/23 02:45:25;;;;;;;11.05;7.45;;;;;;;15.70;68.25;96755.16;5094217;28;20032;-60
2021/08/23 02:47:50;;;;;;;10.75;7.72;;;;;;;15.64;68.56;96761.63;5094238;28;20042;-61
2021/08/23 02:50:16;;;;;;;10.75;7.40;;;;;;;15.52;68.44;96766.66;5094125;28;20089;-62
2021/08/23 02:52:42;;;;;;;8.30;7.38;;;;;;;15.55;69.02;96763.00;5093845;28;20024;-62
2021/08/23 02:55:08;;;;;;;8.98;7.15;;;;;;;15.56;68.63;96763.88;5093903;28;20028;-61
2021/08/23 02:57:34;;;;;;;11.75;8.05;;;;;;;15.48;69.84;96759.00;5093945;28;20024;-63
2021/08/23 03:00:00;;;;;;;11.18;7.97;;;;;;;15.40;69.94;96760.28;5108008;28;20461;-60
2021/08/23 03:02:25;;;;;;;15.10;7.50;;;;;;;15.36;69.17;96756.09;5114188;28;20035;-61
2021/08/23 03:04:51;;;;;;;9.23;7.07;;;;;;;15.36;69.55;96760.50;5114100;28;20422;-60
2021/08/23 03:07:16;;;;;;;11.98;7.28;;;;;;;15.35;69.24;96762.28;5114135;28;20028;-61
2021/08/23 03:09:43;;;;;;;10.35;7.10;;;;;;;15.29;69.94;96755.56;5111899;28;20027;-61
2021/08/23 03:12:09;;;;;;;9.88;8.38;;;;;;;15.25;69.95;96759.31;5114119;28;20019;-61
2021/08/23 03:14:35;;;;;;;9.85;7.50;;;;;;;15.20;70.72;96755.22;5114017;28;20172;-62
2021/08/23 03:17:00;;;;;;;9.70;7.38;;;;;;;15.23;69.93;96755.91;5113891;28;20035;-60
2021/08/23 03:19:26;;;;;;;11.23;8.25;;;;;;;15.21;70.09;96754.28;5093761;28;20119;-62
2021/08/23 03:21:52;;;;;;;9.70;7.13;;;;;;;15.21;70.36;96760.41;5093594;28;20026;-62
2021/08/23 03:24:17;;;;;;;9.63;6.70;;;;;;;15.11;70.65;96759.22;5093303;28;20040;-60
2021/08/23 03:26:43;;;;;;;10.82;7.70;;;;;;;15.11;70.61;96762.66;5097179;28;20062;-66
2021/08/23 03:29:12;;;;;;;9.07;6.78;;;;;;;15.17;70.65;96769.38;5113809;27;20069;-61
2021/08/23 03:31:38;;;;;;;13.50;8.05;;;;;;;15.19;70.81;96761.41;5113767;28;20107;-61
2021/08/23 03:34:08;;;;;;;12.55;7.55;;;;;;;15.18;70.08;96757.09;5113182;28;20028;-60
2021/08/23 03:36:33;;;;;;;8.65;6.88;;;;;;;15.24;70.08;96756.75;5112965;28;20110;-60
2021/08/23 03:38:59;;;;;;;10.18;6.97;;;;;;;15.32;69.13;96759.81;5113588;28;20111;-62
2021/08/23 03:41:24;;;;;;;8.80;6.47;;;;;;;15.36;69.38;96758.75;5113839;28;20016;-62
2021/08/23 03:43:50;;;;;;;13.35;6.40;;;;;;;15.44;68.95;96760.09;5113623;28;20481;-61
2021/08/23 03:46:16;;;;;;;12.95;7.28;;;;;;;15.44;68.73;96760.09;5099635;28;20073;-62
2021/08/23 03:48:41;;;;;;;10.88;7.25;;;;;;;15.52;68.86;96756.13;5101937;28;20020;-62
2021/08/23 03:51:07;;;;;;;9.15;7.22;;;;;;;15.51;69.04;96749.13;5108288;28;20106;-61
2021/08/23 03:53:32;;;;;;;10.60;7.20;;;;;;;15.50;68.99;96759.78;5113490;28;20381;-62
2021/08/23 03:55:58;;;;;;;8.60;6.75;;;;;;;15.49;68.52;96752.78;5113600;28;20023;-60
2021/08/23 03:58:24;;;;;;;14.40;6.47;;;;;;;15.41;68.66;96754.06;5113548;28;20024;-62
2021/08/23 04:00:49;;;;;;;14.63;7.57;;;;;;;15.35;69.31;96764.09;5113448;28;20119;-61
2021/08/23 04:03:15;;;;;;;9.35;7.05;;;;;;;15.35;69.51;96761.47;5113494;28;20028;-62
2021/08/23 04:05:42;;;;;;;10.00;7.25;;;;;;;15.37;69.50;96763.06;5113426;28;20024;-62
2021/08/23 04:08:08;;;;;;;12.55;6.80;;;;;;;15.46;69.62;96763.50;5113408;28;20043;-62
2021/08/23 04:10:33;;;;;;;8.65;6.43;;;;;;;15.66;69.29;96763.25;5113467;28;20456;-62
2021/08/23 04:12:59;;;;;;;11.98;6.03;;;;;;;15.92;68.34;96771.50;5113305;28;20366;-61
2021/08/23 04:15:25;;;;;;;11.25;7.32;;;;;;;16.20;68.75;96774.41;5113222;28;20080;-62
2021/08/23 04:17:50;;;;;;;9.73;6.68;;;;;;;16.41;68.57;96777.59;5115840;28;20028;-62
2021/08/23 04:20:16;;;;;;;9.32;6.75;;;;;;;16.71;68.02;96775.03;5117427;28;20055;-61
2021/08/23 04:22:41;;;;;;;8.57;6.00;;;;;;;17.02;66.46;96782.00;5117421;28;20481;-62
2021/08/23 04:25:08;;;;;;;10.48;6.47;;;;;;;17.36;65.31;96772.94;5117141;28;20089;-61
2021/08/23 04:27:34;;;;;;;7.60;5.90;;;;;;;17.70;64.73;96770.00;5117232;28;20028;-61
2021/08/23 04:29:59;;;;;;;8.15;6.32;;;;;;;18.02;63.92;96770.56;5117364;28;20046;-61
2021/08/23 04:32:25;;;;;;;7.80;5.45;;;;;;;18.42;63.28;96772.44;5117136;28;20380;-62
2021/08/23 04:34:50;;;;;;;7.90;5.55;;;;;;;18.81;61.95;96769.84;5117056;28;20027;-61
2021/08/23 04:37:16;;;;;;;7.80;5.82;;;;;;;19.12;61.20;96768.75;5116951;28;20088;-62
2021/08/23 04:39:44;;;;;;;7.35;5.68;;;;;;;19.50;61.03;96765.19;5117124;28;20015;-63
2021/08/23 04:42:10;;;;;;;7.68;5.28;;;;;;;19.90;59.88;96763.31;5116926;28;20079;-62
2021/08/23 04:44:35;;;;;;;7.93;5.82;;;;;;;20.25;58.50;96761.69;5116878;28;20027;-63
2021/08/23 04:47:01;;;;;;;10.60;5.47;;;;;;;20.61;57.59;96767.00;5116940;28;20106;-61
2021/08/23 04:49:26;;;;;;;6.90;5.60;;;;;;;20.95;57.66;96761.84;5116811;28;20027;-61
2021/08/23 04:51:52;;;;;;;8.00;6.15;;;;;;;21.34;56.83;96762.34;5116690;28;20087;-61
2021/08/23 04:54:18;;;;;;;6.95;5.57;;;;;;;21.69;55.63;96755.19;5116704;28;20035;-61
2021/08/23 04:56:46;;;;;;;8.68;5.38;;;;;;;22.03;54.63;96753.47;5116636;28;20027;-61
2021/08/23 04:59:12;;;;;;;6.65;5.07;;;;;;;22.38;54.30;96759.50;5116714;28;20116;-63
2021/08/23 05:01:37;;;;;;;11.75;6.13;;;;;;;22.71;54.05;96749.69;5116630;28;20500;-62
2021/08/23 05:04:03;;;;;;;9.70;5.40;;;;;;;22.99;53.50;96757.19;5116645;28;20076;-62
2021/08/23 05:06:29;;;;;;;8.73;5.30;;;;;;;23.34;52.49;96754.13;5116502;28;20355;-61
2021/08/23 05:08:54;;;;;;;6.30;5.20;;;;;;;23.64;51.88;96758.75;5116550;27;20065;-61
2021/08/23 05:11:20;;;;;;;7.57;5.55;;;;;;;24.01;51.70;96762.63;5116500;28;20028;-62
2021/08/23 05:13:45;;;;;;;6.65;5.38;;;;;;;24.32;51.43;96759.91;5116376;28;20028;-61
2021/08/23 05:16:11;;;;;;;10.40;5.15;;;;;;;24.66;50.18;96767.50;5116163;28;20047;-62
2021/08/23 05:18:36;;;;;;;7.00;5.03;;;;;;;25.05;49.53;96765.78;5116411;28;20034;-62
2021/08/23 05:21:03;;;;;;;7.32;5.28;;;;;;;25.33;49.30;96764.03;5116335;28;20419;-62
2021/08/23 05:23:30;;;;;;;5.88;5.20;;;;;;;25.61;48.53;96773.94;5116023;28;20080;-62
2021/08/23 05:25:56;;;;;;;8.52;5.50;;;;;;;25.97;47.79;96759.78;5116108;28;20088;-63
2021/08/23 05:28:21;;;;;;;6.80;5.03;;;;;;;26.28;47.34;96762.16;5114713;28;20016;-62
2021/08/23 05:30:47;;;;;;;8.07;5.38;;;;;;;26.62;46.73;96766.84;5116007;28;20465;-60
2021/08/23 05:33:12;;;;;;;7.60;5.10;;;;;;;26.95;46.29;96768.06;5116053;28;20061;-63
2021/08/23 05:35:38;;;;;;;6.00;5.22;;;;;;;27.26;45.50;96762.28;5116019;28;20030;-63
2021/08/23 05:38:04;;;;;;;6.68;5.55;;;;;;;27.56;44.11;96761.91;5115810;28;20072;-61
2021/08/23 05:40:30;;;;;;;8.27;5.47;;;;;;;27.83;44.39;96765.41;5115815;28;20024;-62
2021/08/23 05:42:56;;;;;;;7.97;5.57;;;;;;;28.13;43.66;96760.47;5115840;28;20027;-62
2021/08/23 05:45:22;;;;;;;11.35;5.45;;;;;;;28.21;44.42;96765.88;5115811;28;20034;-63
2021/08/23 05:47:47;;;;;;;8.45;4.90;;;;;;;28.36;43.98;96766.06;5115872;28;20102;-61
2021/08/23 05:50:13;;;;;;;7.38;5.07;;;;;;;28.54;42.77;96767.78;5115729;28;20020;-62
2021/08/23 05:52:38;;;;;;;8.02;5.38;;;;;;;28.80;42.81;96765.94;5115621;28;20118;-60
2021/08/23 05:55:04;;;;;;;7.60;5.43;;;;;;;28.91;41.47;96764.75;5115592;28;20024;-62
2021/08/23 05:57:30;;;;;;;5.97;5.18;;;;;;;29.13;41.00;96768.63;5115465;28;20023;-62
2021/08/23 05:59:56;;;;;;;6.10;5.13;;;;;;;29.46;41.90;96775.78;5115434;28;20032;-61
2021/08/23 06:02:21;;;;;;;8.02;6.22;;;;;;;29.77;41.01;96764.28;5115459;28;20023;-61
2021/08/23 06:04:47;;;;;;;6.18;5.40;;;;;;;29.99;40.70;96769.88;5114114;28;20024;-62
2021/08/23 06:07:15;;;;;;;8.88;5.32;;;;;;;30.16;39.35;96759.00;5115281;28;20513;-61
2021/08/23 06:09:41;;;;;;;9.90;5.72;;;;;;;30.35;39.48;96761.28;5115571;28;20492;-61
2021/08/23 06:12:07;;;;;;;5.65;5.05;;;;;;;30.63;39.03;96766.13;5115302;28;20020;-60
2021/08/23 06:14:33;;;;;;;9.38;5.65;;;;;;;30.91;39.33;96759.34;5115255;28;20020;-61
2021/08/23 06:16:59;;;;;;;8.18;6.07;;;;;;;31.09;38.54;96755.47;5115033;28;20358;-61
2021/08/23 06:19:24;;;;;;;8.35;5.72;;;;;;;31.26;37.66;96759.69;5115127;28;20472;-60
2021/08/23 06:21:50;;;;;;;6.20;5.40;;;;;;;31.35;37.55;96760.47;5115009;28;20024;-61
2021/08/23 06:24:16;;;;;;;6.32;5.00;;;;;;;31.58;37.30;96756.84;5114835;28;20055;-61
2021/08/23 06:26:42;;;;;;;7.03;5.57;;;;;;;31.49;35.73;96763.34;5114943;28;20096;-61
2021/08/23 06:29:08;;;;;;;5.65;4.55;;;;;;;31.63;32.46;96767.06;5114866;28;20016;-61
2021/08/23 06:31:35;;;;;;;5.97;4.15;;;;;;;31.71;32.48;96760.72;5114805;28;20030;-61
2021/08/23 06:34:01;;;;;;;5.30;4.78;;;;;;;31.67;29.64;96767.53;5114803;28;20046;-62
2021/08/23 06:36:27;;;;;;;4.03;3.30;;;;;;;31.28;25.60;96763.03;5114674;28;20023;-62
2021/08/23 06:38:52;;;;;;;3.53;2.97;;;;;;;31.02;26.43;96763.47;5114778;28;20016;-62
2021/08/23 06:41:20;;;;;;;4.50;3.08;;;;;;;30.88;26.23;96757.84;5114247;28;20024;-60
2021/08/23 06:43:46;;;;;;;6.35;3.22;;;;;;;30.77;25.37;96766.38;5114565;28;20554;-60
2021/08/23 06:46:12;;;;;;;5.45;3.63;;;;;;;30.58;26.86;96759.59;5114671;28;20110;-62
2021/08/23 06:48:38;;;;;;;3.75;3.33;;;;;;;30.33;26.34;96757.06;5114542;28;20019;-61
2021/08/23 06:51:04;;;;;;;3.58;3.15;;;;;;;30.36;26.36;96759.41;5114517;27;20034;-62
2021/08/23 06:53:30;;;;;;;6.60;2.97;;;;;;;30.33;27.36;96757.06;5114397;28;20024;-60
2021/08/23 06:55:55;;;;;;;3.70;3.28;;;;;;;30.41;27.31;96762.41;5114364;28;20422;-61
2021/08/23 06:58:21;;;;;;;5.07;3.50;;;;;;;30.69;27.20;96763.72;5114206;28;20110;-62
2021/08/23 07:00:46;;;;;;;3.75;3.35;;;;;;;30.64;27.00;96765.09;5114296;28;20096;-60
2021/08/23 07:03:12;;;;;;;4.90;3.40;;;;;;;30.76;25.90;96760.16;5114262;28;20019;-61
2021/08/23 07:05:37;;;;;;;6.45;3.72;;;;;;;30.67;26.45;96755.78;5114280;28;20539;-61
2021/08/23 07:08:03;;;;;;;3.67;3.28;;;;;;;30.60;26.67;96755.69;5114113;28;20069;-62
2021/08/23 07:10:28;;;;;;;5.80;3.53;;;;;;;30.59;27.36;96758.56;5114212;28;20024;-61
2021/08/23 07:12:54;;;;;;;4.65;3.30;;;;;;;30.69;26.25;96758.31;5114197;28;20354;-61
2021/08/23 07:15:20;;;;;;;4.15;3.33;;;;;;;30.60;26.36;96763.78;5114005;28;20351;-61
2021/08/23 07:17:45;;;;;;;7.55;4.15;;;;;;;30.04;26.63;96761.28;5113941;28;20027;-63
2021/08/23 07:20:11;;;;;;;6.75;4.32;;;;;;;29.99;26.76;96759.09;5113825;28;20026;-60
2021/08/23 07:22:37;;;;;;;4.15;3.53;;;;;;;29.86;26.44;96762.38;5113774;28;20066;-63
2021/08/23 07:25:05;;;;;;;5.43;3.55;;;;;;;29.65;26.53;96769.19;5113713;28;20469;-61
2021/08/23 07:27:32;;;;;;;4.10;3.45;;;;;;;29.76;27.22;96757.19;5113928;28;20030;-62
2021/08/23 07:29:59;;;;;;;4.38;3.97;;;;;;;29.83;26.79;96760.03;5113822;28;20040;-61
2021/08/23 07:32:25;;;;;;;3.75;3.33;;;;;;;29.94;26.83;96756.09;5113778;28;20027;-60
2021/08/23 07:34:51;;;;;;;4.15;3.40;;;;;;;29.89;26.93;96768.25;5113700;28;20023;-59
2021/08/23 07:37:17;;;;;;;4.70;3.22;;;;;;;30.07;26.98;96756.34;5113721;28;20028;-60
2021/08/23 07:39:43;;;;;;;4.18;3.63;;;;;;;30.46;25.59;96754.59;5113624;28;20026;-60
2021/08/23 07:42:09;;;;;;;5.35;4.07;;;;;;;30.41;26.38;96759.72;5113605;28;20039;-62
2021/08/23 07:44:35;;;;;;;5.20;3.88;;;;;;;30.13;27.11;96766.44;5113655;28;20550;-61
2021/08/23 07:47:01;;;;;;;5.22;3.60;;;;;;;30.42;26.58;96757.84;5113482;28;20035;-62
2021/08/23 07:49:26;;;;;;;4.60;3.50;;;;;;;30.77;26.65;96759.16;5113644;28;20028;-60
2021/08/23 07:51:52;;;;;;;5.57;3.58;;;;;;;30.80;26.18;96763.34;5112758;28;20023;-61
2021/08/23 07:54:18;;;;;;;4.63;3.78;;;;;;;30.99;26.84;96763.81;5113700;28;20024;-61
2021/08/23 07:56:47;;;;;;;5.20;3.65;;;;;;;31.13;25.18;96768.44;5112125;28;20059;-61
2021/08/23 07:59:12;;;;;;;4.72;4.00;;;;;;;30.75;25.80;96771.94;5113409;28;20032;-60
2021/08/23 08:01:38;;;;;;;6.72;4.05;;;;;;;30.26;26.22;96765.03;5113528;28;20019;-60
2021/08/23 08:04:05;;;;;;;5.18;4.32;;;;;;;30.37;27.29;96769.19;5113521;28;20030;-60
2021/08/23 08:06:30;;;;;;;3.90;3.08;;;;;;;30.57;26.84;96774.94;5113307;28;20019;-62
2021/08/23 08:08:56;;;;;;;4.78;3.58;;;;;;;30.50;25.85;96772.13;5113427;28;20024;-61
2021/08/23 08:11:22;;;;;;;4.18;3.45;;;;;;;30.66;25.68;96761.41;5113480;28;20027;-62
2021/08/23 08:13:47;;;;;;;5.03;3.42;;;;;;;30.30;25.29;96760.13;5113376;28;20012;-62
2021/08/23 08:16:13;;;;;;;5.15;3.78;;;;;;;30.09;25.66;96757.03;5113238;28;20018;-62
2021/08/23 08:18:39;;;;;;;4.38;3.50;;;;;;;30.00;26.82;96758.06;5113488;28;20492;-61
2021/08/23 08:21:06;;;;;;;4.65;3.30;;;;;;;30.23;25.59;96749.22;5113224;28;20020;-62
2021/08/23 08:23:32;;;;;;;6.55;3.55;;;;;;;30.46;26.59;96754.59;5112975;28;20051;-62
2021/08/23 08:25:58;;;;;;;3.97;3.08;;;;;;;30.34;25.75;96750.66;5113261;28;20389;-61
2021/08/23 08:28:24;;;;;;;6.28;3.38;;;;;;;30.72;25.52;96747.16;5113335;28;20027;-61
2021/08/23 08:30:49;;;;;;;4.75;3.08;;;;;;;30.54;26.18;96750.16;5113341;28;20074;-62
2021/08/23 08:33:15;;;;;;;4.15;2.83;;;;;;;30.52;25.64;96755.78;5113182;28;20035;-61
2021/08/23 08:35:42;;;;;;;5.15;3.30;;;;;;;30.12;25.90;96740.50;5113152;28;20028;-62
2021/08/23 08:38:08;;;;;;;3.47;3.17;;;;;;;29.91;27.12;96751.88;5113096;28;20080;-61
2021/08/23 08:40:34;;;;;;;3.72;3.08;;;;;;;30.12;28.16;96739.63;5113229;28;20061;-62
2021/08/23 08:43:00;;;;;;;4.72;3.65;;;;;;;30.29;27.08;96742.25;5113171;28;20073;-61
2021/08/23 08:45:27;;;;;;;7.30;3.60;;;;;;;30.17;26.95;96740.00;5113151;28;20028;-60
2021/08/23 08:47:56;;;;;;;4.13;3.03;;;;;;;29.74;26.94;96741.19;5113161;28;20020;-61
2021/08/23 08:50:23;;;;;;;8.70;4.05;;;;;;;29.76;28.07;96733.78;5113014;28;20027;-62
2021/08/23 08:52:51;;;;;;;4.63;3.08;;;;;;;29.63;27.35;96739.75;5113020;28;20030;-62
2021/08/23 08:55:17;;;;;;;6.97;3.47;;;;;;;29.59;26.44;96727.59;5113123;28;20015;-61
2021/08/23 08:57:44;;;;;;;4.65;3.58;;;;;;;29.75;27.73;96732.09;5112877;28;20024;-61
2021/08/23 09:00:10;;;;;;;4.40;3.50;;;;;;;29.76;27.10;96741.00;5112998;28;20030;-60
2021/08/23 09:02:36;;;;;;;8.73;3.30;;;;;;;29.50;24.45;96740.25;5112183;28;20024;-62
2021/08/23 09:05:16;;;;;;;3.35;2.95;;;;;;;29.27;24.74;96734.78;5116525;28;20465;-61
2021/08/23 09:07:48;;;;;;;5.78;3.38;;;;;;;29.34;25.99;96719.59;5116649;28;20032;-61
2021/08/23 09:10:22;;;;;;;5.38;3.20;;;;;;;29.30;25.44;96726.34;5116603;28;20028;-62
2021/08/23 09:13:08;;;;;;;5.72;3.50;;;;;;;29.16;25.49;96727.06;5116431;28;20058;-61
2021/08/23 09:15:36;;;;;;;4.13;3.30;;;;;;;29.20;25.68;96715.75;5116495;28;20435;-62
2021/08/23 09:18:03;;;;;;;5.00;3.40;;;;;;;29.19;26.45;96716.78;5116219;28;20063;-61
2021/08/23 09:20:29;;;;;;;3.65;2.88;;;;;;;29.30;26.86;96723.66;5116375;28;20019;-61
2021/08/23 09:23:09;;;;;;;3.17;2.80;;;;;;;29.48;24.60;96709.13;5116175;28;20416;-61
2021/08/23 09:25:35;;;;;;;6.57;3.23;;;;;;;29.34;26.29;96722.28;5116087;28;20035;-61
2021/08/23 09:28:05;;;;;;;4.93;3.40;;;;;;;29.54;25.68;96710.25;5116254;28;20427;-60
2021/08/23 09:30:32;;;;;;;4.18;2.90;;;;;;;29.69;26.01;96713.09;5116272;28;20023;-61
2021/08/23 09:33:01;;;;;;;5.53;3.53;;;;;;;29.69;26.00;96707.69;5116028;28;20381;-62
2021/08/23 09:35:34;;;;;;;3.70;3.17;;;;;;;29.88;26.78;96719.91;5115889;28;20054;-62
2021/08/23 09:38:01;;;;;;;3.30;3.00;;;;;;;29.95;25.33;96703.88;5116046;28;20107;-61
2021/08/23 09:40:30;;;;;;;4.05;2.83;;;;;;;30.14;24.46;96703.41;5115803;28;20027;-62
2021/08/23 09:43:08;;;;;;;4.80;2.57;;;;;;;29.98;23.02;96696.25;5115819;28;20024;-60
2021/08/23 09:45:35;;;;;;;3.40;2.33;;;;;;;29.91;23.55;96689.06;5116115;28;20085;-62
2021/08/23 09:48:03;;;;;;;3.63;3.10;;;;;;;29.80;24.79;96685.78;5115118;28;20047;-61
2021/08/23 09:50:39;;;;;;;4.00;2.80;;;;;;;29.65;24.96;96682.97;5115700;28;20177;-62
2021/08/23 09:53:13;;;;;;;6.22;3.40;;;;;;;29.70;24.98;96699.44;5115604;28;20027;-61
2021/08/23 09:55:41;;;;;;;3.63;2.67;;;;;;;29.21;26.21;96690.53;5115793;28;20031;-62
2021/08/23 09:58:09;;;;;;;4.35;3.10;;;;;;;29.21;26.30;96684.31;5115431;28;20030;-61
2021/08/23 10:00:36;;;;;;;3.83;3.20;;;;;;;29.42;26.48;96683.72;5115509;28;20077;-61
2021/08/23 10:03:05;;;;;;;3.90;3.13;;;;;;;29.42;25.78;96678.34;5115527;28;20024;-61
2021/08/23 10:05:32;;;;;;;4.22;3.30;;;;;;;29.26;26.20;96671.16;5115540;28;20020;-62
2021/08/23 10:07:58;;;;;;;6.22;3.03;;;;;;;29.26;26.26;96690.03;5115427;28;20520;-61
2021/08/23 10:10:24;;;;;;;3.72;3.15;;;;;;;29.57;25.49;96674.94;5115407;27;20103;-60
2021/08/23 10:12:51;;;;;;;7.28;3.00;;;;;;;29.77;24.96;96676.16;5115288;28;20434;-61
2021/08/23 10:15:17;;;;;;;5.15;2.97;;;;;;;29.72;25.44;96681.25;5114376;28;20102;-61
2021/08/23 10:17:44;;;;;;;3.30;3.00;;;;;;;29.83;25.99;96677.31;5115014;28;20111;-62
2021/08/23 10:20:11;;;;;;;5.22;3.40;;;;;;;30.01;26.35;96668.13;5115150;28;20032;-62
2021/08/23 10:22:40;;;;;;;4.10;3.22;;;;;;;30.19;25.62;96670.53;5114742;28;20043;-61
2021/08/23 10:25:07;;;;;;;7.88;3.30;;;;;;;30.04;26.17;96673.16;5114863;28;20036;-63
2021/08/23 10:27:39;;;;;;;5.55;3.28;;;;;;;29.53;26.20;96671.72;5115081;28;20026;-61
2021/08/23 10:30:06;;;;;;;3.97;3.25;;;;;;;29.45;25.98;96674.44;5115196;28;20028;-61
2021/08/23 10:32:37;;;;;;;6.07;2.90;;;;;;;29.62;26.09;96669.88;5114970;28;20089;-61
2021/08/23 10:35:20;;;;;;;4.72;2.80;;;;;;;29.61;24.75;96665.47;5114809;28;20028;-61
2021/08/23 10:37:47;;;;;;;5.53;3.00;;;;;;;29.51;25.27;96669.22;5114728;27;20023;-62
2021/08/23 10:40:14;;;;;;;4.93;3.50;;;;;;;29.11;26.23;96671.88;5114695;28;20023;-61
2021/08/23 10:42:47;;;;;;;5.38;3.20;;;;;;;29.29;26.43;96675.34;5114780;28;20358;-60
2021/08/23 10:45:18;;;;;;;3.40;2.78;;;;;;;29.13;24.43;96680.63;5114563;28;20542;-61
2021/08/23 10:47:45;;;;;;;4.05;2.67;;;;;;;29.07;23.13;96651.69;5114647;28;20076;-61
2021/08/23 10:50:25;;;;;;;3.47;2.38;;;;;;;29.21;23.73;96650.16;5114572;28;20047;-61
2021/08/23 10:52:52;;;;;;;5.20;2.90;;;;;;;28.93;22.91;96660.47;5114506;28;20032;-62
2021/08/23 10:55:26;;;;;;;4.00;2.72;;;;;;;29.01;24.42;96653.22;5114534;28;20020;-62
2021/08/23 10:58:06;;;;;;;2.90;2.58;;;;;;;29.38;23.28;96650.09;5114423;28;20427;-62
2021/08/23 11:00:41;;;;;;;6.05;3.08;;;;;;;29.46;24.25;96655.41;5114326;28;20035;-61
2021/08/23 11:03:10;;;;;;;5.55;3.28;;;;;;;29.58;24.86;96650.50;5114475;28;20047;-62
2021/08/23 11:05:37;;;;;;;6.03;3.13;;;;;;;29.53;24.64;96650.19;5114214;28;20027;-62
2021/08/23 11:08:09;;;;;;;4.28;2.90;;;;;;;29.35;23.21;96653.13;5114264;28;20473;-62
2021/08/23 11:10:39;;;;;;;4.57;2.80;;;;;;;29.49;23.82;96638.91;5114249;28;20426;-62
2021/08/23 11:13:16;;;;;;;8.63;3.28;;;;;;;29.59;25.42;96635.19;5114150;28;20019;-61
2021/08/23 11:15:43;;;;;;;7.43;3.10;;;;;;;29.61;25.35;96623.22;5112897;28;20035;-61
2021/08/23 11:18:17;;;;;;;4.57;3.05;;;;;;;29.42;23.56;96623.63;5114036;28;20035;-60
2021/08/23 11:20:43;;;;;;;5.80;3.15;;;;;;;29.41;24.75;96630.03;5114163;28;20024;-61
2021/08/23 11:23:11;;;;;;;4.57;2.90;;;;;;;29.36;23.88;96619.78;5113961;28;20386;-62
2021/08/23 11:25:48;;;;;;;5.70;3.13;;;;;;;29.28;25.42;96617.13;5093526;28;20490;-62
2021/08/23 11:28:19;;;;;;;5.03;3.00;;;;;;;29.21;25.04;96619.69;5093449;28;20016;-61
2021/08/23 11:30:48;;;;;;;5.45;2.97;;;;;;;29.02;25.98;96619.09;5093537;28;20382;-61